Time;durP1;ratioP1;P1;durP2;ratioP2;P2;SDS_P1;SDS_P2;PMS_P1;PMS_P2;Temp;Humidity;BMP_temperature;BMP_pressure;BME280_temperature;BME280_humidity;BME280_pressure;Samples;Min_cycle;Max_cycle;Signal;HPM_P1;HPM_P2
2022/04/30 00:01:23;;;;;;;11.65;4.38;;;12.50;99.90;;;;;;5203115;28;20125;-75
2022/04/30 00:03:54;;;;;;;10.85;4.22;;;12.40;99.90;;;;;;5207313;28;20025;-76
2022/04/30 00:06:25;;;;;;;13.40;3.85;;;12.40;99.90;;;;;;5207515;28;20121;-76
2022/04/30 00:08:55;;;;;;;12.38;4.50;;;12.50;99.90;;;;;;5191553;28;20022;-76
2022/04/30 00:11:26;;;;;;;11.00;3.85;;;12.30;99.90;;;;;;5209198;28;20092;-76
2022/04/30 00:13:57;;;;;;;13.98;4.60;;;12.50;99.90;;;;;;5192614;28;20021;-76
2022/04/30 00:16:28;;;;;;;9.90;4.05;;;12.40;99.90;;;;;;5204192;28;20061;-76
2022/04/30 00:19:03;;;;;;;12.95;4.25;;;12.50;99.90;;;;;;5208366;28;20013;-77
2022/04/30 00:21:54;;;;;;;7.88;3.42;;;12.40;99.90;;;;;;5207849;28;20037;-77
2022/04/30 00:24:29;;;;;;;11.15;3.80;;;12.40;99.90;;;;;;5206851;28;20026;-77
2022/04/30 00:27:05;;;;;;;12.90;3.85;;;12.40;99.90;;;;;;5203780;28;20389;-76
2022/04/30 00:29:46;;;;;;;9.18;4.00;;;12.50;99.90;;;;;;5208517;28;20533;-77
2022/04/30 00:32:16;;;;;;;6.68;3.90;;;12.40;99.90;;;;;;5208349;28;20038;-76
2022/04/30 00:34:48;;;;;;;8.77;3.38;;;12.50;99.90;;;;;;5205526;28;20041;-77
2022/04/30 00:37:19;;;;;;;7.95;3.60;;;12.40;99.90;;;;;;5188391;28;20037;-77
2022/04/30 00:39:49;;;;;;;13.60;4.03;;;12.50;99.90;;;;;;5206841;28;20487;-76
2022/04/30 00:42:21;;;;;;;12.95;4.03;;;12.50;99.90;;;;;;5205819;28;20028;-76
2022/04/30 00:44:51;;;;;;;10.50;4.47;;;12.40;99.90;;;;;;5203776;28;20068;-76
2022/04/30 00:47:22;;;;;;;9.75;3.65;;;12.50;99.90;;;;;;5208307;28;20037;-76
2022/04/30 00:49:53;;;;;;;9.60;4.20;;;12.40;99.90;;;;;;5194603;28;20021;-76
2022/04/30 00:52:27;;;;;;;10.40;4.85;;;12.40;99.90;;;;;;5193861;28;20513;-76
2022/04/30 00:55:02;;;;;;;8.02;4.10;;;12.40;99.90;;;;;;5187776;28;20462;-77
2022/04/30 00:57:36;;;;;;;12.63;4.75;;;12.40;99.90;;;;;;5198073;28;20076;-77
2022/04/30 01:00:08;;;;;;;9.23;4.07;;;12.40;99.90;;;;;;5192378;28;20120;-76
2022/04/30 01:02:39;;;;;;;9.98;3.85;;;12.40;99.90;;;;;;5198335;28;20079;-74
2022/04/30 01:05:10;;;;;;;11.07;4.60;;;12.40;99.90;;;;;;5207513;28;20447;-76
2022/04/30 01:07:41;;;;;;;9.60;4.30;;;12.40;99.90;;;;;;5201106;28;20021;-76
2022/04/30 01:10:12;;;;;;;12.77;4.65;;;12.50;99.90;;;;;;5207840;28;20384;-75
2022/04/30 01:12:44;;;;;;;10.02;4.20;;;12.40;99.90;;;;;;5207552;28;20118;-77
2022/04/30 01:15:15;;;;;;;10.20;4.63;;;12.30;99.90;;;;;;5207602;28;20022;-77
2022/04/30 01:17:46;;;;;;;11.55;4.40;;;12.40;99.90;;;;;;5207695;28;20496;-76
2022/04/30 01:20:18;;;;;;;10.75;4.60;;;12.40;99.90;;;;;;5206611;28;20477;-77
2022/04/30 01:23:04;;;;;;;11.48;4.13;;;12.30;99.90;;;;;;5201019;28;20104;-76
2022/04/30 01:25:38;;;;;;;10.77;5.15;;;12.30;99.90;;;;;;5192848;28;20034;-75
2022/04/30 01:28:12;;;;;;;13.13;4.45;;;12.50;99.90;;;;;;5207639;28;20025;-75
2022/04/30 01:30:42;;;;;;;17.83;5.78;;;12.40;99.90;;;;;;5198665;28;20398;-75
2022/04/30 01:38:59;;;;;;;13.75;4.88;;;12.20;99.90;;;;;;5207528;28;20385;-75
2022/04/30 01:41:30;;;;;;;8.02;4.63;;;12.30;99.90;;;;;;5199498;28;20029;-76
2022/04/30 01:44:02;;;;;;;13.20;5.18;;;12.20;99.90;;;;;;5212908;28;20045;-74
2022/04/30 01:46:38;;;;;;;12.50;4.95;;;12.20;99.90;;;;;;5185575;28;20112;-76
2022/04/30 01:49:15;;;;;;;12.35;4.80;;;12.20;99.90;;;;;;5186341;28;20036;-77
2022/04/30 01:51:50;;;;;;;10.07;4.75;;;12.30;99.90;;;;;;5196757;28;20548;-76
2022/04/30 01:54:21;;;;;;;10.93;5.25;;;12.30;99.90;;;;;;5207110;28;20022;-76
2022/04/30 01:56:51;;;;;;;13.35;4.90;;;12.20;99.90;;;;;;5205787;28;20385;-75
2022/04/30 01:59:23;;;;;;;9.25;4.85;;;12.30;99.90;;;;;;5205697;28;20044;-77
2022/04/30 02:01:55;;;;;;;13.68;6.90;;;12.20;99.90;;;;;;5201939;28;20034;-77
2022/04/30 02:04:36;;;;;;;10.80;4.85;;;12.20;99.90;;;;;;5186328;28;20034;-77
2022/04/30 02:07:07;;;;;;;9.68;5.60;;;12.10;99.90;;;;;;5186538;28;20470;-76
2022/04/30 02:09:38;;;;;;;15.18;5.25;;;12.10;99.90;;;;;;5187834;28;20097;-76
2022/04/30 02:12:10;;;;;;;11.68;5.78;;;12.20;99.90;;;;;;5206842;28;20176;-76
2022/04/30 02:14:46;;;;;;;11.80;4.97;;;12.20;99.90;;;;;;5201738;28;20018;-78
2022/04/30 02:17:19;;;;;;;11.63;4.60;;;12.10;99.90;;;;;;5206954;28;20121;-74
2022/04/30 02:22:42;;;;;;;16.23;5.22;;;12.10;99.90;;;;;;5211018;28;20092;-76
2022/04/30 02:25:15;;;;;;;12.68;5.10;;;12.20;99.90;;;;;;5203650;28;20386;-77
2022/04/30 02:27:49;;;;;;;16.00;5.10;;;12.10;99.90;;;;;;5189512;28;20033;-78
2022/04/30 02:30:22;;;;;;;12.32;4.60;;;12.20;99.90;;;;;;5196916;28;20033;-76
2022/04/30 02:32:57;;;;;;;11.48;5.30;;;12.10;99.90;;;;;;5185730;28;20040;-76
2022/04/30 02:35:31;;;;;;;14.88;4.82;;;12.10;99.90;;;;;;5190807;28;20033;-82
2022/04/30 02:38:06;;;;;;;13.05;4.88;;;12.10;99.90;;;;;;5186494;28;20382;-83
2022/04/30 02:40:39;;;;;;;12.50;5.40;;;12.00;99.90;;;;;;5187439;28;20026;-78
2022/04/30 02:43:11;;;;;;;12.23;5.47;;;12.00;99.90;;;;;;5206744;28;20075;-77
2022/04/30 02:45:45;;;;;;;12.23;5.35;;;12.10;99.90;;;;;;5201182;28;20035;-77
2022/04/30 02:48:15;;;;;;;13.30;5.57;;;12.10;99.90;;;;;;5205482;28;20027;-76
2022/04/30 02:50:47;;;;;;;19.48;5.30;;;12.10;99.90;;;;;;5204584;28;20030;-78
2022/04/30 02:53:19;;;;;;;9.10;4.75;;;12.10;99.90;;;;;;5206671;28;20543;-77
2022/04/30 02:55:49;;;;;;;12.85;5.35;;;12.10;99.90;;;;;;5218921;28;20043;-76
2022/04/30 03:01:09;;;;;;;12.88;4.65;;;12.10;99.90;;;;;;5219195;28;20049;-77
2022/04/30 03:03:40;;;;;;;13.10;5.05;;;12.10;99.90;;;;;;5210736;28;20101;-76
2022/04/30 03:06:13;;;;;;;13.20;5.10;;;12.10;99.90;;;;;;5208664;28;20029;-76
2022/04/30 03:08:48;;;;;;;10.32;4.18;;;12.00;99.90;;;;;;5205712;28;20022;-76
2022/04/30 03:11:19;;;;;;;9.02;4.45;;;12.10;99.90;;;;;;5202846;28;20037;-75
2022/04/30 03:13:50;;;;;;;14.15;4.20;;;12.10;99.90;;;;;;5209873;28;20068;-76
2022/04/30 03:21:59;;;;;;;15.00;5.40;;;12.00;99.90;;;;;;5210029;28;20064;-78
2022/04/30 03:24:31;;;;;;;12.60;4.88;;;12.20;99.90;;;;;;5209603;28;20049;-81
2022/04/30 03:27:03;;;;;;;16.60;5.57;;;12.00;99.90;;;;;;5241832;28;20124;-80
2022/04/30 03:29:34;;;;;;;9.27;4.60;;;12.20;99.90;;;;;;5209958;28;20397;-80
2022/04/30 03:32:06;;;;;;;10.95;4.50;;;12.10;99.90;;;;;;5209571;28;20068;-76
2022/04/30 03:34:37;;;;;;;12.02;4.75;;;12.10;99.90;;;;;;5209990;28;20408;-79
2022/04/30 03:37:08;;;;;;;12.00;4.43;;;12.00;99.90;;;;;;5197605;28;20025;-79
2022/04/30 03:39:39;;;;;;;13.65;4.30;;;12.10;99.90;;;;;;5188906;28;20029;-78
2022/04/30 03:42:10;;;;;;;9.02;4.35;;;12.00;99.90;;;;;;5221835;28;20540;-79
2022/04/30 03:44:41;;;;;;;12.02;4.85;;;12.10;99.90;;;;;;5220823;28;20028;-79
2022/04/30 03:47:12;;;;;;;13.27;4.78;;;12.10;99.90;;;;;;5208170;28;20029;-79
2022/04/30 03:49:42;;;;;;;10.30;4.70;;;12.20;99.90;;;;;;5209344;28;20027;-76
2022/04/30 03:52:13;;;;;;;11.07;4.60;;;12.10;99.90;;;;;;5209371;28;20040;-75
2022/04/30 03:54:44;;;;;;;11.70;4.22;;;12.10;99.90;;;;;;5190182;28;20128;-76
2022/04/30 03:57:15;;;;;;;11.32;4.38;;;12.20;99.90;;;;;;5207585;28;20112;-75
2022/04/30 03:59:46;;;;;;;11.73;4.15;;;12.10;99.90;;;;;;5187140;28;20136;-74
2022/04/30 04:02:18;;;;;;;9.05;3.90;;;12.10;99.90;;;;;;5188867;28;20034;-77
2022/04/30 04:04:52;;;;;;;14.93;4.45;;;12.10;99.90;;;;;;5192913;28;20569;-79
2022/04/30 04:07:23;;;;;;;17.35;4.78;;;12.10;99.90;;;;;;5187585;28;20080;-75
2022/04/30 04:09:54;;;;;;;9.55;4.20;;;12.10;99.90;;;;;;5193973;28;20072;-74
2022/04/30 04:12:25;;;;;;;9.88;4.57;;;12.10;99.90;;;;;;5207719;28;20532;-77
2022/04/30 04:17:45;;;;;;;10.48;3.92;;;12.20;99.90;;;;;;5229755;28;20055;-75
2022/04/30 04:20:19;;;;;;;9.75;4.05;;;12.20;99.90;;;;;;5202461;28;20030;-75
2022/04/30 04:22:50;;;;;;;15.80;5.32;;;12.20;99.90;;;;;;5203620;28;20053;-74
2022/04/30 04:28:10;;;;;;;9.60;4.22;;;12.20;99.90;;;;;;5208429;28;20148;-75
2022/04/30 04:30:41;;;;;;;12.85;5.07;;;12.30;99.90;;;;;;5208274;28;20033;-77
2022/04/30 04:33:12;;;;;;;10.45;3.83;;;12.30;99.90;;;;;;5208769;28;20029;-75
2022/04/30 04:35:42;;;;;;;18.08;4.50;;;12.30;99.90;;;;;;5206289;28;20026;-74
2022/04/30 04:38:13;;;;;;;7.03;3.88;;;12.30;99.90;;;;;;5207230;28;20033;-74
2022/04/30 04:40:44;;;;;;;10.55;4.80;;;12.20;99.90;;;;;;5200857;28;20043;-74
2022/04/30 04:43:15;;;;;;;14.77;4.28;;;12.20;99.90;;;;;;5199614;28;20026;-77
2022/04/30 04:45:46;;;;;;;9.85;4.78;;;12.20;99.90;;;;;;5207654;28;20543;-76
2022/04/30 04:48:17;;;;;;;10.23;4.03;;;12.20;99.90;;;;;;5199690;28;20056;-74
2022/04/30 04:50:47;;;;;;;11.63;4.20;;;12.20;99.90;;;;;;5192004;28;20033;-76
2022/04/30 04:53:18;;;;;;;10.73;4.55;;;12.20;99.90;;;;;;5198930;28;20040;-78
2022/04/30 04:55:49;;;;;;;8.48;3.72;;;12.30;99.90;;;;;;5208208;28;20037;-75
2022/04/30 04:58:20;;;;;;;9.48;4.00;;;12.30;99.90;;;;;;5201958;28;20112;-77
2022/04/30 05:00:51;;;;;;;7.60;3.92;;;12.30;99.90;;;;;;5187561;28;20188;-78
2022/04/30 05:03:22;;;;;;;9.57;4.18;;;12.20;99.90;;;;;;5191065;28;20088;-81
2022/04/30 05:05:53;;;;;;;13.13;4.18;;;12.30;99.90;;;;;;5202912;28;20184;-78
2022/04/30 05:08:24;;;;;;;8.25;4.05;;;12.30;99.90;;;;;;5202154;28;20089;-75
2022/04/30 05:10:55;;;;;;;8.88;3.78;;;12.20;99.90;;;;;;5224167;28;20033;-76
2022/04/30 05:13:25;;;;;;;11.43;4.43;;;12.30;99.90;;;;;;5228749;28;20029;-84
2022/04/30 05:15:56;;;;;;;11.18;4.53;;;12.20;99.90;;;;;;5228436;28;20049;-74
2022/04/30 05:18:27;;;;;;;8.48;4.50;;;12.10;99.90;;;;;;5212148;28;20025;-77
2022/04/30 05:20:58;;;;;;;8.55;4.28;;;12.20;99.90;;;;;;5207889;28;20064;-77
2022/04/30 05:23:29;;;;;;;8.30;4.35;;;12.20;99.90;;;;;;5207732;28;20029;-75
2022/04/30 05:26:00;;;;;;;12.43;5.05;;;12.20;99.90;;;;;;5206555;28;20028;-79
2022/04/30 05:28:30;;;;;;;14.73;4.63;;;12.10;99.90;;;;;;5212191;28;20029;-76
2022/04/30 05:31:01;;;;;;;16.40;5.32;;;12.10;99.90;;;;;;5207870;28;20496;-76
2022/04/30 05:33:35;;;;;;;8.45;4.47;;;12.10;99.90;;;;;;5224378;28;20488;-81
2022/04/30 05:36:06;;;;;;;15.05;4.90;;;12.30;99.90;;;;;;5228239;28;20016;-75
2022/04/30 05:38:36;;;;;;;15.00;5.50;;;12.20;99.90;;;;;;5212152;28;20025;-77
2022/04/30 05:41:07;;;;;;;16.02;5.47;;;12.20;99.90;;;;;;5207595;28;20071;-77
2022/04/30 05:43:38;;;;;;;13.93;5.85;;;12.20;99.90;;;;;;5218423;28;20028;-75
2022/04/30 05:46:09;;;;;;;11.55;5.63;;;12.10;99.90;;;;;;5227966;28;20083;-77
2022/04/30 05:48:40;;;;;;;11.38;5.90;;;12.20;99.90;;;;;;5211050;28;20038;-78
2022/04/30 05:51:11;;;;;;;12.30;5.80;;;12.20;99.90;;;;;;5208088;28;20033;-77
2022/04/30 05:53:42;;;;;;;10.82;5.90;;;12.20;99.90;;;;;;5205971;28;20031;-77
2022/04/30 05:56:13;;;;;;;19.38;7.28;;;12.10;99.90;;;;;;5207416;28;20026;-77
2022/04/30 05:58:43;;;;;;;14.30;5.38;;;12.20;99.90;;;;;;5190428;28;20394;-76
2022/04/30 06:01:14;;;;;;;14.27;5.75;;;12.20;99.90;;;;;;5186915;28;20034;-76
2022/04/30 06:03:46;;;;;;;13.10;6.85;;;12.20;99.90;;;;;;5215199;28;20463;-75
2022/04/30 06:06:21;;;;;;;12.48;6.50;;;12.20;99.90;;;;;;5203848;28;20034;-76
2022/04/30 06:08:52;;;;;;;16.17;6.30;;;12.10;99.90;;;;;;5187062;28;20373;-76
2022/04/30 06:11:23;;;;;;;19.60;7.18;;;12.00;99.90;;;;;;5189864;28;20029;-75
2022/04/30 06:13:53;;;;;;;12.88;6.03;;;12.10;99.90;;;;;;5221784;28;20052;-78
2022/04/30 06:16:24;;;;;;;15.80;6.55;;;12.10;99.90;;;;;;5196142;28;20033;-77
2022/04/30 06:18:55;;;;;;;11.73;6.20;;;12.20;99.90;;;;;;5203463;28;20033;-78
2022/04/30 06:21:26;;;;;;;11.68;6.18;;;12.20;99.90;;;;;;5207046;28;20474;-78
2022/04/30 06:23:57;;;;;;;11.25;6.45;;;12.10;99.90;;;;;;5203297;28;20410;-77
2022/04/30 06:26:28;;;;;;;15.57;6.45;;;12.20;99.90;;;;;;5186530;28;20026;-78
2022/04/30 06:28:59;;;;;;;14.40;6.22;;;12.20;99.90;;;;;;5203619;28;20113;-75
2022/04/30 06:31:29;;;;;;;14.80;6.47;;;12.10;99.90;;;;;;5205665;28;20033;-78
2022/04/30 06:34:00;;;;;;;13.55;6.82;;;12.20;99.90;;;;;;5207046;28;20092;-76
2022/04/30 06:36:31;;;;;;;14.68;7.13;;;12.20;99.90;;;;;;5205937;28;20080;-76
2022/04/30 06:39:02;;;;;;;14.38;6.35;;;12.20;99.90;;;;;;5199971;28;20029;-76
2022/04/30 06:41:33;;;;;;;13.88;7.00;;;12.10;99.90;;;;;;5226317;28;20428;-75
2022/04/30 06:44:04;;;;;;;15.20;7.57;;;12.20;99.90;;;;;;5228947;28;20071;-75
2022/04/30 06:46:35;;;;;;;12.32;7.00;;;12.20;99.90;;;;;;5216238;28;20112;-80
2022/04/30 06:49:05;;;;;;;12.27;7.20;;;12.20;99.90;;;;;;5221127;28;20562;-79
2022/04/30 06:51:36;;;;;;;14.10;6.85;;;12.10;99.90;;;;;;5190348;28;20109;-77
2022/04/30 06:57:11;;;;;;;14.52;6.85;;;12.10;99.90;;;;;;5205180;28;20036;-75
2022/04/30 06:59:44;;;;;;;10.93;5.93;;;12.10;99.90;;;;;;5210087;28;20041;-78
2022/04/30 07:02:20;;;;;;;16.77;6.93;;;12.20;99.90;;;;;;5199154;28;20068;-77
2022/04/30 07:04:52;;;;;;;16.80;6.57;;;12.20;99.90;;;;;;5190498;28;20036;-79
2022/04/30 07:07:22;;;;;;;14.20;6.20;;;12.10;99.90;;;;;;5199760;28;20022;-78
2022/04/30 07:09:53;;;;;;;16.50;6.50;;;12.00;99.90;;;;;;5207375;28;20404;-77
2022/04/30 07:12:24;;;;;;;13.88;6.20;;;12.20;99.90;;;;;;5196025;28;20034;-75
2022/04/30 07:14:55;;;;;;;15.45;6.30;;;12.10;99.90;;;;;;5219281;28;20031;-78
2022/04/30 07:17:26;;;;;;;12.55;6.63;;;12.20;99.90;;;;;;5205465;28;20029;-79
2022/04/30 07:19:57;;;;;;;12.80;7.45;;;12.10;99.90;;;;;;5202709;28;20071;-75
2022/04/30 07:22:27;;;;;;;18.17;7.13;;;12.00;99.90;;;;;;5212613;28;20092;-77
2022/04/30 07:24:58;;;;;;;12.43;6.43;;;12.20;99.90;;;;;;5193436;28;20400;-75
2022/04/30 07:27:29;;;;;;;15.20;6.50;;;12.20;99.90;;;;;;5209916;28;20028;-76
2022/04/30 07:30:01;;;;;;;12.65;6.85;;;12.10;99.90;;;;;;5201489;28;20041;-78
2022/04/30 07:32:32;;;;;;;12.40;6.43;;;12.00;99.90;;;;;;5204877;28;20073;-79
2022/04/30 07:35:03;;;;;;;16.70;7.18;;;12.10;99.90;;;;;;5208478;28;20053;-76
2022/04/30 07:37:34;;;;;;;15.20;7.05;;;12.30;99.90;;;;;;5208872;28;20032;-78
2022/04/30 07:40:05;;;;;;;12.35;6.43;;;12.10;99.90;;;;;;5209517;28;20477;-78
2022/04/30 07:42:36;;;;;;;17.02;6.80;;;12.20;99.90;;;;;;5200655;28;20466;-77
2022/04/30 07:45:07;;;;;;;17.95;7.47;;;12.00;99.90;;;;;;5209747;28;20025;-75
2022/04/30 07:47:38;;;;;;;12.65;7.57;;;12.10;99.90;;;;;;5193732;28;20025;-77
2022/04/30 07:50:10;;;;;;;20.02;8.95;;;12.20;99.90;;;;;;5191786;28;21030;-74
2022/04/30 07:52:41;;;;;;;15.98;8.32;;;12.00;99.90;;;;;;5205451;28;20034;-76
2022/04/30 07:55:12;;;;;;;15.88;6.75;;;12.10;99.90;;;;;;5209412;28;20032;-77
2022/04/30 07:57:43;;;;;;;11.65;7.35;;;12.10;99.90;;;;;;5216758;28;20017;-76
2022/04/30 08:00:15;;;;;;;14.25;7.50;;;12.10;99.90;;;;;;5229767;28;20053;-76
2022/04/30 08:02:47;;;;;;;12.63;6.78;;;12.20;99.90;;;;;;5195500;28;20025;-80
2022/04/30 08:05:18;;;;;;;13.60;6.85;;;12.10;99.90;;;;;;5196820;28;20026;-80
2022/04/30 08:07:49;;;;;;;15.70;7.22;;;12.20;99.90;;;;;;5188853;28;20382;-81
2022/04/30 08:10:21;;;;;;;13.60;7.70;;;12.20;99.90;;;;;;5214828;28;20067;-83
2022/04/30 08:12:56;;;;;;;13.32;7.78;;;12.00;99.90;;;;;;5190758;28;20064;-82
2022/04/30 08:15:27;;;;;;;17.95;7.00;;;12.10;99.90;;;;;;5208636;28;20022;-81
2022/04/30 08:17:58;;;;;;;20.00;6.68;;;12.30;99.90;;;;;;5208982;28;20029;-81
2022/04/30 08:20:28;;;;;;;14.75;7.18;;;12.10;99.90;;;;;;5207475;28;20071;-81
2022/04/30 08:23:02;;;;;;;19.38;7.40;;;12.10;99.90;;;;;;5196964;28;20429;-80
2022/04/30 08:25:38;;;;;;;15.45;7.63;;;12.10;99.90;;;;;;5210305;28;20022;-80
2022/04/30 08:28:09;;;;;;;17.25;7.20;;;12.00;99.90;;;;;;5223916;28;20041;-80
2022/04/30 08:30:40;;;;;;;16.02;8.38;;;12.00;99.90;;;;;;5211726;28;20032;-80
2022/04/30 08:33:10;;;;;;;15.35;6.68;;;12.00;99.90;;;;;;5206558;28;20029;-80
2022/04/30 08:35:41;;;;;;;20.83;7.80;;;12.30;99.90;;;;;;5209260;28;20033;-77
2022/04/30 08:38:12;;;;;;;20.83;8.80;;;12.20;99.90;;;;;;5199210;28;20493;-79
2022/04/30 08:40:44;;;;;;;18.70;8.35;;;12.30;99.90;;;;;;5187207;28;20054;-80
2022/04/30 08:43:16;;;;;;;20.17;8.18;;;12.30;99.90;;;;;;5194367;28;20029;-81
2022/04/30 08:45:47;;;;;;;16.55;8.13;;;12.40;99.90;;;;;;5188469;28;20033;-79
2022/04/30 08:48:18;;;;;;;14.57;7.55;;;12.30;99.90;;;;;;5188077;28;20026;-84
2022/04/30 08:50:49;;;;;;;12.55;7.30;;;12.40;99.90;;;;;;5189352;28;20381;-80
2022/04/30 08:53:20;;;;;;;14.55;6.63;;;12.60;99.90;;;;;;5205991;28;20037;-76
2022/04/30 08:55:51;;;;;;;20.25;8.10;;;12.20;99.90;;;;;;5188444;28;20477;-76
2022/04/30 08:58:22;;;;;;;14.40;7.68;;;12.20;99.90;;;;;;5192584;28;20025;-75
2022/04/30 09:01:04;;;;;;;17.33;6.78;;;12.30;99.90;;;;;;5167472;28;20052;-77
2022/04/30 09:03:37;;;;;;;16.73;7.45;;;12.40;99.90;;;;;;5167377;28;20026;-74
2022/04/30 09:06:08;;;;;;;18.33;9.10;;;12.40;99.90;;;;;;5175923;28;20147;-76
2022/04/30 09:08:51;;;;;;;15.75;7.07;;;12.30;99.90;;;;;;5177532;28;20098;-86
2022/04/30 09:11:28;;;;;;;13.77;7.70;;;12.30;99.90;;;;;;5187263;28;20029;-84
2022/04/30 09:13:59;;;;;;;16.10;7.05;;;12.30;99.90;;;;;;5187080;28;20033;-79
2022/04/30 09:16:30;;;;;;;14.10;7.00;;;12.30;99.90;;;;;;5186027;28;20482;-76
2022/04/30 09:19:04;;;;;;;15.85;7.13;;;12.20;99.90;;;;;;5187530;28;20038;-77
2022/04/30 09:21:35;;;;;;;15.30;7.13;;;12.20;99.90;;;;;;5202476;28;20374;-76
2022/04/30 09:24:07;;;;;;;14.68;7.97;;;12.10;99.90;;;;;;5187406;28;20027;-78
2022/04/30 09:26:42;;;;;;;16.13;6.90;;;12.30;99.90;;;;;;5187375;28;20036;-82
2022/04/30 09:29:23;;;;;;;17.35;6.90;;;12.20;99.90;;;;;;5187310;28;20058;-80
2022/04/30 09:31:54;;;;;;;17.67;6.57;;;12.40;99.90;;;;;;5183026;28;20490;-80
2022/04/30 09:37:41;;;;;;;12.68;6.10;;;12.20;99.90;;;;;;5165933;28;20181;-76
2022/04/30 09:40:16;;;;;;;17.02;6.55;;;12.10;99.90;;;;;;5167383;28;20470;-80
2022/04/30 09:42:47;;;;;;;18.90;6.05;;;12.30;99.90;;;;;;5163602;28;20490;-80
2022/04/30 09:45:35;;;;;;;15.13;7.07;;;12.30;99.90;;;;;;5164432;28;20038;-78
2022/04/30 09:53:56;;;;;;;9.35;5.20;;;12.30;99.90;;;;;;5164662;28;20462;-74
2022/04/30 09:56:30;;;;;;;14.35;5.80;;;12.20;99.90;;;;;;5164390;28;20034;-74
2022/04/30 09:59:10;;;;;;;13.70;5.78;;;12.10;99.90;;;;;;5169162;28;20053;-80
2022/04/30 10:01:43;;;;;;;10.27;5.90;;;12.40;99.90;;;;;;5182349;28;20078;-81
2022/04/30 10:04:17;;;;;;;12.27;5.15;;;12.60;99.90;;;;;;5184615;28;20038;-82
2022/04/30 10:06:50;;;;;;;12.90;5.50;;;12.60;99.90;;;;;;5184402;28;20044;-82
2022/04/30 10:09:34;;;;;;;14.43;5.78;;;12.50;99.90;;;;;;5167525;28;20079;-76
2022/04/30 10:12:26;;;;;;;12.23;5.18;;;12.50;99.90;;;;;;5184498;28;20033;-78
2022/04/30 10:15:15;;;;;;;11.88;4.90;;;12.50;99.90;;;;;;5206603;28;20029;-78
2022/04/30 10:17:49;;;;;;;10.68;5.50;;;12.50;99.90;;;;;;5205837;28;20044;-78
2022/04/30 10:20:36;;;;;;;19.35;6.60;;;12.50;99.90;;;;;;5206887;28;20062;-78
2022/04/30 10:23:07;;;;;;;9.02;4.82;;;12.50;99.90;;;;;;5186447;28;20034;-79
2022/04/30 10:25:47;;;;;;;13.43;6.15;;;12.50;99.90;;;;;;5201443;28;20022;-79
2022/04/30 10:28:21;;;;;;;10.32;4.30;;;12.60;99.90;;;;;;5186228;28;20033;-76
2022/04/30 10:31:00;;;;;;;10.98;4.55;;;12.50;99.90;;;;;;5203908;28;20433;-76
2022/04/30 10:33:45;;;;;;;8.70;3.92;;;12.70;99.90;;;;;;5185209;28;20034;-77
2022/04/30 10:36:18;;;;;;;9.02;3.90;;;12.40;99.90;;;;;;5189194;28;20058;-88
2022/04/30 10:39:04;;;;;;;8.15;3.78;;;12.50;99.90;;;;;;5186241;28;20026;-83
2022/04/30 10:41:45;;;;;;;9.77;4.45;;;12.50;99.90;;;;;;5205449;28;20084;-76
2022/04/30 10:44:26;;;;;;;11.98;4.70;;;12.40;99.90;;;;;;5206945;28;20030;-89
2022/04/30 10:47:14;;;;;;;16.17;4.65;;;12.60;99.90;;;;;;5186309;28;20091;-79
2022/04/30 10:49:44;;;;;;;12.35;4.68;;;12.70;99.90;;;;;;5201235;28;20033;-81
2022/04/30 10:52:24;;;;;;;13.60;4.72;;;12.50;99.90;;;;;;5205152;28;20482;-78
2022/04/30 10:54:58;;;;;;;12.25;4.35;;;12.50;99.90;;;;;;5206472;28;20116;-76
2022/04/30 10:57:28;;;;;;;14.13;3.80;;;12.60;99.90;;;;;;5186094;28;20057;-75
2022/04/30 11:00:02;;;;;;;12.75;4.55;;;12.70;99.90;;;;;;5205055;28;20520;-77
2022/04/30 11:02:33;;;;;;;7.63;4.28;;;12.80;99.90;;;;;;5206558;28;20078;-78
2022/04/30 11:05:04;;;;;;;12.98;5.20;;;12.60;99.90;;;;;;5206561;28;20022;-78
2022/04/30 11:07:37;;;;;;;7.95;3.90;;;12.70;99.90;;;;;;5206448;28;20029;-77
2022/04/30 11:10:08;;;;;;;8.45;4.07;;;12.60;99.90;;;;;;5206539;28;20049;-77
2022/04/30 11:12:39;;;;;;;11.95;5.70;;;12.80;99.90;;;;;;5206595;28;20034;-77
2022/04/30 11:15:11;;;;;;;11.10;4.13;;;12.90;99.90;;;;;;5206307;28;20512;-76
2022/04/30 11:17:44;;;;;;;10.15;4.53;;;12.70;99.90;;;;;;5206535;28;20029;-82
2022/04/30 11:20:25;;;;;;;15.68;4.40;;;12.80;99.90;;;;;;5206388;28;20076;-81
2022/04/30 11:22:58;;;;;;;9.30;3.85;;;12.70;99.90;;;;;;5209775;28;20105;-84
2022/04/30 11:25:36;;;;;;;10.38;3.33;;;12.90;99.90;;;;;;5208950;28;20132;-79
2022/04/30 11:28:08;;;;;;;12.75;4.70;;;12.80;99.90;;;;;;5209171;28;20030;-77
2022/04/30 11:30:50;;;;;;;9.05;4.53;;;12.70;99.90;;;;;;5208614;28;20087;-78
2022/04/30 11:33:32;;;;;;;10.65;4.10;;;12.70;99.90;;;;;;5208884;28;20040;-79
2022/04/30 11:36:03;;;;;;;8.20;3.72;;;12.70;99.90;;;;;;5210249;28;20110;-78
2022/04/30 11:38:34;;;;;;;8.55;3.38;;;12.60;99.90;;;;;;5207960;28;20021;-77
2022/04/30 11:41:06;;;;;;;7.95;3.85;;;12.70;99.90;;;;;;5225166;28;20080;-81
2022/04/30 11:43:37;;;;;;;14.25;4.82;;;12.50;99.90;;;;;;5209859;28;20022;-78
2022/04/30 11:46:08;;;;;;;16.58;4.75;;;12.60;99.90;;;;;;5209764;28;20036;-79
2022/04/30 11:48:39;;;;;;;14.23;4.22;;;12.70;99.90;;;;;;5208631;28;20030;-75
2022/04/30 11:51:11;;;;;;;14.07;4.00;;;12.60;99.90;;;;;;5208337;28;20126;-82
2022/04/30 11:53:42;;;;;;;12.18;4.05;;;12.70;99.90;;;;;;5208354;28;20033;-76
2022/04/30 11:56:13;;;;;;;12.27;4.10;;;12.60;99.90;;;;;;5208367;28;20029;-76
2022/04/30 11:58:44;;;;;;;12.48;4.30;;;12.70;99.90;;;;;;5208930;28;20041;-79
2022/04/30 12:01:22;;;;;;;8.02;3.72;;;12.80;99.90;;;;;;5209396;28;20378;-77
2022/04/30 12:04:02;;;;;;;16.27;4.07;;;12.80;99.90;;;;;;5209574;28;20351;-76
2022/04/30 12:06:34;;;;;;;11.38;4.80;;;12.60;99.90;;;;;;5209821;28;20036;-75
2022/04/30 12:09:18;;;;;;;11.60;3.80;;;12.70;99.90;;;;;;5209408;28;20017;-81
2022/04/30 12:11:50;;;;;;;15.90;5.40;;;12.70;99.90;;;;;;5209216;28;20037;-81
2022/04/30 12:14:21;;;;;;;12.65;4.57;;;12.60;99.90;;;;;;5209356;28;20485;-83
2022/04/30 12:16:52;;;;;;;14.25;4.95;;;12.80;99.90;;;;;;5207887;28;20018;-86
2022/04/30 12:25:15;;;;;;;14.35;4.55;;;12.50;99.90;;;;;;5209421;28;20034;-79
2022/04/30 12:27:59;;;;;;;13.45;4.47;;;12.70;99.90;;;;;;5208950;28;20025;-78
2022/04/30 12:30:32;;;;;;;18.20;5.38;;;12.50;99.90;;;;;;5208790;28;20120;-78
2022/04/30 12:33:05;;;;;;;11.57;4.60;;;12.60;99.90;;;;;;5208188;28;20037;-80
2022/04/30 12:35:40;;;;;;;15.35;5.30;;;12.50;99.90;;;;;;5209031;28;20374;-79
2022/04/30 12:38:12;;;;;;;12.70;4.00;;;12.80;99.90;;;;;;5209172;28;20055;-76
2022/04/30 12:40:49;;;;;;;15.48;4.13;;;12.40;99.90;;;;;;5208834;28;20025;-77
2022/04/30 12:43:20;;;;;;;13.80;4.50;;;12.40;99.90;;;;;;5215357;28;20106;-76
2022/04/30 12:45:51;;;;;;;14.85;4.60;;;12.60;99.90;;;;;;5201796;28;20136;-77
2022/04/30 12:48:22;;;;;;;20.67;4.25;;;12.30;99.90;;;;;;5204107;28;20025;-79
2022/04/30 12:50:52;;;;;;;11.38;4.80;;;12.30;99.90;;;;;;5239990;28;20025;-81
2022/04/30 12:53:23;;;;;;;12.25;4.68;;;12.50;99.90;;;;;;5204233;28;20501;-77
2022/04/30 12:55:54;;;;;;;17.48;4.13;;;12.50;99.90;;;;;;5207158;28;20033;-76
2022/04/30 12:58:25;;;;;;;13.27;3.55;;;12.40;99.90;;;;;;5213026;28;20029;-76
2022/04/30 13:00:56;;;;;;;13.50;5.40;;;12.40;99.90;;;;;;5202436;28;20033;-80
2022/04/30 13:03:28;;;;;;;10.43;4.57;;;12.30;99.90;;;;;;5224990;28;20032;-81
2022/04/30 13:06:02;;;;;;;16.80;5.20;;;12.30;99.90;;;;;;5209419;28;20014;-75
2022/04/30 13:14:11;;;;;;;10.98;3.85;;;12.30;99.90;;;;;;5229010;28;20112;-77
2022/04/30 13:16:42;;;;;;;13.07;4.95;;;12.40;99.90;;;;;;5243958;28;20112;-79
2022/04/30 13:19:13;;;;;;;13.52;3.85;;;12.30;99.90;;;;;;5228652;28;20539;-78
2022/04/30 13:21:47;;;;;;;15.23;4.45;;;12.50;99.90;;;;;;5215541;28;20029;-78
2022/04/30 13:24:18;;;;;;;12.93;3.83;;;12.40;99.90;;;;;;5206989;28;20021;-76
2022/04/30 13:26:49;;;;;;;13.88;4.00;;;12.20;99.90;;;;;;5199101;28;20033;-80
2022/04/30 13:29:19;;;;;;;23.40;4.82;;;12.40;99.90;;;;;;5212471;28;20404;-77
2022/04/30 13:31:50;;;;;;;9.60;3.90;;;12.40;99.90;;;;;;5226917;28;20029;-75
2022/04/30 13:34:21;;;;;;;15.52;5.03;;;12.40;99.90;;;;;;5200638;28;20037;-74
2022/04/30 13:36:52;;;;;;;11.57;4.30;;;12.40;99.90;;;;;;5198883;28;20034;-78
2022/04/30 13:39:23;;;;;;;10.88;4.90;;;12.40;99.90;;;;;;5199537;28;20029;-76
2022/04/30 13:41:54;;;;;;;11.27;5.28;;;12.40;99.90;;;;;;5189351;28;20033;-75
2022/04/30 13:44:25;;;;;;;15.15;4.88;;;12.50;99.90;;;;;;5186481;28;20588;-79
2022/04/30 13:46:56;;;;;;;14.48;4.55;;;12.30;99.90;;;;;;5186742;28;20030;-77
2022/04/30 13:49:28;;;;;;;20.35;5.07;;;12.40;99.90;;;;;;5200730;28;20481;-75
2022/04/30 13:51:59;;;;;;;12.88;4.55;;;12.40;99.90;;;;;;5207258;28;20025;-76